Time;durP1;ratioP1;P1;durP2;ratioP2;P2;SDS_P1;SDS_P2;PMS_P1;PMS_P2;Temp;Humidity;BMP_temperature;BMP_pressure;BME280_temperature;BME280_humidity;BME280_pressure;Samples;Min_cycle;Max_cycle;Signal;HPM_P1;HPM_P2
2022/12/22 03:28:13;;;;;;;1.67;1.67;;;;;;;;;;6114273;23;20411;-80
2022/12/22 03:30:39;;;;;;;2.20;2.10;;;;;;;;;;6128703;23;20506;-82
2022/12/22 03:33:05;;;;;;;3.13;1.90;;;;;;;;;;6144171;23;20448;-81
2022/12/22 03:35:31;;;;;;;1.27;1.27;;;;;;;;;;6149036;23;20365;-81
2022/12/22 03:38:02;;;;;;;1.80;1.80;;;;;;;;;;6158933;23;20377;-81
2022/12/22 03:40:28;;;;;;;1.60;1.60;;;;;;;;;;6163630;23;20404;-81
2022/12/22 03:48:23;;;;;;;1.40;1.40;;;;;;;;;;6147175;23;20388;-81
2022/12/22 03:50:49;;;;;;;1.87;1.87;;;;;;;;;;6149803;23;20698;-79
2022/12/22 03:53:15;;;;;;;1.53;1.53;;;;;;;;;;6144196;23;20380;-79
2022/12/22 03:55:41;;;;;;;1.60;1.60;;;;;;;;;;6148176;23;20463;-79
2022/12/22 03:58:07;;;;;;;2.70;1.37;;;;;;;;;;6143489;23;20438;-79
2022/12/22 04:00:33;;;;;;;1.40;1.40;;;;;;;;;;6148623;23;20428;-79
2022/12/22 04:02:59;;;;;;;3.23;1.00;;;;;;;;;;6141989;23;20398;-79
2022/12/22 04:05:25;;;;;;;1.00;1.00;;;;;;;;;;6147830;23;20766;-80
2022/12/22 04:07:51;;;;;;;0.90;0.90;;;;;;;;;;6144996;23;20376;-79
2022/12/22 04:13:02;;;;;;;1.20;1.20;;;;;;;;;;6145070;23;20432;-80
2022/12/22 04:15:30;;;;;;;1.37;1.37;;;;;;;;;;6147146;23;20373;-80
2022/12/22 04:17:57;;;;;;;4.93;1.20;;;;;;;;;;6142858;23;20455;-80
2022/12/22 04:20:25;;;;;;;1.30;1.30;;;;;;;;;;6147357;23;20511;-80
2022/12/22 04:22:51;;;;;;;1.10;1.10;;;;;;;;;;6143667;23;20380;-80
2022/12/22 04:25:17;;;;;;;1.17;1.17;;;;;;;;;;6147334;23;20360;-81
2022/12/22 04:27:43;;;;;;;1.23;1.10;;;;;;;;;;6141319;23;20395;-82
2022/12/22 04:30:10;;;;;;;0.93;0.93;;;;;;;;;;6146367;23;20427;-81
2022/12/22 04:32:36;;;;;;;1.70;1.30;;;;;;;;;;6143228;23;20443;-81
2022/12/22 04:35:02;;;;;;;0.97;0.97;;;;;;;;;;6149604;23;20805;-81
2022/12/22 04:37:29;;;;;;;1.07;1.07;;;;;;;;;;6147151;23;20376;-80
2022/12/22 04:39:55;;;;;;;1.27;1.27;;;;;;;;;;6145033;23;20486;-81
2022/12/22 04:42:21;;;;;;;1.30;1.30;;;;;;;;;;6146683;23;20372;-81
2022/12/22 04:44:47;;;;;;;1.60;1.60;;;;;;;;;;6142912;23;20379;-80
2022/12/22 04:47:13;;;;;;;1.23;1.23;;;;;;;;;;6146335;23;20387;-80
2022/12/22 04:49:39;;;;;;;1.10;1.10;;;;;;;;;;6142666;23;20387;-80
2022/12/22 04:52:05;;;;;;;1.17;1.17;;;;;;;;;;6146417;23;20744;-82
2022/12/22 04:54:31;;;;;;;1.07;1.07;;;;;;;;;;6143058;23;20407;-81
2022/12/22 04:56:57;;;;;;;1.40;1.40;;;;;;;;;;6146635;23;20712;-82
2022/12/22 04:59:23;;;;;;;1.10;1.10;;;;;;;;;;6142373;23;20738;-82
2022/12/22 05:01:49;;;;;;;1.00;1.00;;;;;;;;;;6146683;23;20416;-81
2022/12/22 05:04:18;;;;;;;1.70;1.70;;;;;;;;;;6142920;23;20368;-82
2022/12/22 05:06:44;;;;;;;1.43;1.43;;;;;;;;;;6146233;23;20400;-81
2022/12/22 05:09:11;;;;;;;2.50;2.33;;;;;;;;;;6139004;23;20543;-81
2022/12/22 05:11:37;;;;;;;2.17;2.07;;;;;;;;;;6146320;23;20455;-81
2022/12/22 05:14:03;;;;;;;2.10;2.00;;;;;;;;;;6140750;23;20463;-81
2022/12/22 05:16:29;;;;;;;2.43;2.20;;;;;;;;;;6144575;23;20384;-82
2022/12/22 05:18:55;;;;;;;2.40;2.40;;;;;;;;;;6142652;23;20392;-82
2022/12/22 05:21:22;;;;;;;2.20;2.10;;;;;;;;;;6146326;23;20412;-82
2022/12/22 05:23:49;;;;;;;2.80;2.80;;;;;;;;;;6153591;23;20467;-90
2022/12/22 05:26:15;;;;;;;6.53;6.07;;;;;;;;;;6164643;23;20384;-85
2022/12/22 05:28:42;;;;;;;2.07;2.07;;;;;;;;;;6150980;23;20376;-82
2022/12/22 05:31:09;;;;;;;1.80;1.80;;;;;;;;;;6145982;23;20419;-81
2022/12/22 05:33:35;;;;;;;4.73;4.53;;;;;;;;;;6142312;23;20395;-81
2022/12/22 05:36:02;;;;;;;2.53;2.40;;;;;;;;;;6154627;23;20380;-83
2022/12/22 05:38:28;;;;;;;2.10;2.10;;;;;;;;;;6163489;23;20370;-81
2022/12/22 05:40:54;;;;;;;2.40;2.30;;;;;;;;;;6150704;23;20749;-82
2022/12/22 05:43:20;;;;;;;6.13;3.20;;;;;;;;;;6144579;23;20387;-82
2022/12/22 05:45:46;;;;;;;2.20;2.10;;;;;;;;;;6148160;23;20368;-82
2022/12/22 05:48:13;;;;;;;2.73;2.63;;;;;;;;;;6144016;23;20372;-83
2022/12/22 05:50:39;;;;;;;3.50;3.43;;;;;;;;;;6147703;23;20364;-82
2022/12/22 05:53:06;;;;;;;4.10;3.90;;;;;;;;;;6144037;23;20995;-81
2022/12/22 05:55:32;;;;;;;8.10;3.80;;;;;;;;;;6147952;23;20368;-81
2022/12/22 05:58:00;;;;;;;2.80;2.80;;;;;;;;;;6143606;23;20411;-82
2022/12/22 06:00:27;;;;;;;4.10;3.90;;;;;;;;;;6144579;23;20785;-82
2022/12/22 06:02:58;;;;;;;3.57;3.47;;;;;;;;;;6144436;23;20376;-82
2022/12/22 06:05:24;;;;;;;3.50;3.40;;;;;;;;;;6145990;23;20868;-81
2022/12/22 06:07:51;;;;;;;3.70;3.60;;;;;;;;;;6145041;23;20411;-84
2022/12/22 06:10:17;;;;;;;4.20;3.90;;;;;;;;;;6143685;23;20380;-83
2022/12/22 06:12:44;;;;;;;3.50;3.40;;;;;;;;;;6147467;23;20379;-82
2022/12/22 06:15:11;;;;;;;4.10;3.90;;;;;;;;;;6148394;23;20399;-82
2022/12/22 06:17:38;;;;;;;3.47;3.27;;;;;;;;;;6144437;23;20381;-82
2022/12/22 06:20:04;;;;;;;3.30;3.20;;;;;;;;;;6147396;23;20412;-80
2022/12/22 06:22:30;;;;;;;3.77;3.67;;;;;;;;;;6143697;23;20392;-82
2022/12/22 06:24:56;;;;;;;3.13;3.03;;;;;;;;;;6147843;23;20912;-82
2022/12/22 06:27:22;;;;;;;4.90;4.60;;;;;;;;;;6143377;23;20384;-80
2022/12/22 06:29:48;;;;;;;4.40;4.10;;;;;;;;;;6142329;23;20391;-83
2022/12/22 06:32:14;;;;;;;5.90;5.10;;;;;;;;;;6176711;23;20438;-83
2022/12/22 06:34:40;;;;;;;4.20;4.10;;;;;;;;;;6173352;23;20753;-82
2022/12/22 06:37:06;;;;;;;6.00;5.70;;;;;;;;;;6178671;23;20379;-85
2022/12/22 06:39:32;;;;;;;4.00;3.90;;;;;;;;;;6160786;23;20582;-82
2022/12/22 06:44:43;;;;;;;4.33;4.10;;;;;;;;;;6186553;23;20451;-85
2022/12/22 06:47:09;;;;;;;6.60;5.87;;;;;;;;;;6189743;23;20406;-82
2022/12/22 06:49:35;;;;;;;5.20;4.70;;;;;;;;;;6160552;23;20387;-83
2022/12/22 06:52:01;;;;;;;4.20;4.00;;;;;;;;;;6156012;23;20394;-83
2022/12/22 06:54:27;;;;;;;4.57;4.47;;;;;;;;;;6176377;23;20540;-85
2022/12/22 06:56:53;;;;;;;5.40;5.10;;;;;;;;;;6153926;23;20475;-84
2022/12/22 06:59:19;;;;;;;5.53;5.23;;;;;;;;;;6176624;23;20379;-83
2022/12/22 07:01:45;;;;;;;7.43;5.60;;;;;;;;;;6152510;23;20500;-83
2022/12/22 07:04:15;;;;;;;5.40;5.10;;;;;;;;;;6175170;23;20375;-84
2022/12/22 07:06:41;;;;;;;5.23;4.93;;;;;;;;;;6178131;23;20391;-83
2022/12/22 07:09:08;;;;;;;5.30;5.10;;;;;;;;;;6169931;23;20395;-84
2022/12/22 07:11:34;;;;;;;4.90;4.70;;;;;;;;;;6179741;23;20387;-83
2022/12/22 07:13:59;;;;;;;5.00;4.80;;;;;;;;;;6176210;23;20449;-84
2022/12/22 07:16:26;;;;;;;4.97;4.67;;;;;;;;;;6154500;23;20399;-84
2022/12/22 07:18:52;;;;;;;6.03;5.17;;;;;;;;;;6179787;23;20391;-83
2022/12/22 07:21:18;;;;;;;6.30;5.90;;;;;;;;;;6184940;23;20446;-85
2022/12/22 07:23:44;;;;;;;6.23;5.87;;;;;;;;;;6152570;23;20987;-81
2022/12/22 07:26:10;;;;;;;6.50;5.90;;;;;;;;;;6173352;23;20376;-84
2022/12/22 07:28:37;;;;;;;6.20;5.80;;;;;;;;;;6157937;23;20462;-84
2022/12/22 07:31:04;;;;;;;10.60;6.00;;;;;;;;;;6184269;23;20419;-81
2022/12/22 07:33:30;;;;;;;9.90;6.30;;;;;;;;;;6184354;23;20375;-84
2022/12/22 07:36:04;;;;;;;7.60;7.00;;;;;;;;;;6182710;23;20378;-85
2022/12/22 07:38:35;;;;;;;7.00;6.40;;;;;;;;;;6158469;23;20433;-81
2022/12/22 07:41:01;;;;;;;7.70;7.00;;;;;;;;;;6189324;23;20453;-83
2022/12/22 07:43:27;;;;;;;9.40;8.47;;;;;;;;;;6198832;23;20375;-83
2022/12/22 07:45:53;;;;;;;8.63;7.83;;;;;;;;;;6197139;23;20434;-84
2022/12/22 07:51:05;;;;;;;9.27;7.93;;;;;;;;;;6178152;23;20394;-84
2022/12/22 07:53:32;;;;;;;12.83;10.63;;;;;;;;;;6181152;23;20375;-83
2022/12/22 07:56:03;;;;;;;13.40;12.00;;;;;;;;;;6151258;23;20398;-84
2022/12/22 07:58:29;;;;;;;14.93;11.70;;;;;;;;;;6180583;23;20348;-84
2022/12/22 08:00:59;;;;;;;15.90;13.43;;;;;;;;;;6176471;23;20422;-83
2022/12/22 08:03:27;;;;;;;20.20;13.03;;;;;;;;;;6191118;23;20368;-83
2022/12/22 08:05:53;;;;;;;23.87;14.80;;;;;;;;;;6184043;23;20409;-82
2022/12/22 08:08:22;;;;;;;15.27;13.07;;;;;;;;;;6155782;23;20387;-81
2022/12/22 08:10:48;;;;;;;18.63;14.73;;;;;;;;;;6171011;23;20390;-82
2022/12/22 08:13:15;;;;;;;18.80;14.57;;;;;;;;;;6180995;23;20802;-83
2022/12/22 08:15:41;;;;;;;20.87;14.97;;;;;;;;;;6179141;23;20514;-78
2022/12/22 08:18:07;;;;;;;20.77;13.80;;;;;;;;;;6178528;23;20425;-83
2022/12/22 08:20:33;;;;;;;26.30;17.30;;;;;;;;;;6180526;23;20469;-87
2022/12/22 08:22:59;;;;;;;27.57;16.80;;;;;;;;;;6153840;23;20387;-85
2022/12/22 08:25:25;;;;;;;31.17;19.80;;;;;;;;;;6176420;23;20589;-85
2022/12/22 08:27:53;;;;;;;35.50;17.90;;;;;;;;;;6177412;23;20980;-83
2022/12/22 08:30:19;;;;;;;34.23;19.00;;;;;;;;;;6176828;23;20795;-85
2022/12/22 08:32:46;;;;;;;35.50;18.90;;;;;;;;;;6177164;23;20383;-83
2022/12/22 08:35:12;;;;;;;43.00;20.67;;;;;;;;;;6178138;23;20407;-82
2022/12/22 08:37:40;;;;;;;34.43;19.10;;;;;;;;;;6176969;23;20693;-82
2022/12/22 08:40:08;;;;;;;36.60;19.77;;;;;;;;;;6176063;23;20422;-83
2022/12/22 08:42:34;;;;;;;44.13;22.93;;;;;;;;;;6178419;23;20377;-84
2022/12/22 08:45:00;;;;;;;45.70;24.30;;;;;;;;;;6175906;23;20462;-84
2022/12/22 08:47:28;;;;;;;47.90;23.23;;;;;;;;;;6150852;23;20463;-83
2022/12/22 08:49:54;;;;;;;57.87;24.17;;;;;;;;;;6182228;23;20947;-83
2022/12/22 08:52:20;;;;;;;41.33;21.77;;;;;;;;;;6182534;23;20858;-85
2022/12/22 08:54:47;;;;;;;47.50;25.60;;;;;;;;;;6176475;23;20491;-83
2022/12/22 08:57:15;;;;;;;46.17;21.77;;;;;;;;;;6148366;23;20453;-83
2022/12/22 08:59:41;;;;;;;45.03;23.37;;;;;;;;;;6174770;23;20439;-83
2022/12/22 09:02:07;;;;;;;56.47;26.00;;;;;;;;;;6176022;23;20383;-83
2022/12/22 09:04:36;;;;;;;55.77;27.13;;;;;;;;;;6177388;23;20367;-84
2022/12/22 09:07:04;;;;;;;64.17;31.30;;;;;;;;;;6149935;23;20395;-83
2022/12/22 09:09:31;;;;;;;68.17;32.83;;;;;;;;;;6174475;23;20394;-83
2022/12/22 09:11:57;;;;;;;62.77;30.23;;;;;;;;;;6175704;23;20447;-82
2022/12/22 09:14:23;;;;;;;61.83;30.33;;;;;;;;;;6179880;23;20375;-84
2022/12/22 09:16:49;;;;;;;65.37;31.50;;;;;;;;;;6178564;23;20375;-84
2022/12/22 09:19:16;;;;;;;65.97;31.60;;;;;;;;;;6160861;23;20744;-83
2022/12/22 09:21:42;;;;;;;55.70;27.20;;;;;;;;;;6180175;23;20482;-84
2022/12/22 09:24:08;;;;;;;58.10;26.07;;;;;;;;;;6181385;23;20347;-81
2022/12/22 09:26:34;;;;;;;50.80;23.93;;;;;;;;;;6179789;23;20375;-82
2022/12/22 09:29:04;;;;;;;51.10;27.00;;;;;;;;;;6183925;23;20347;-84
2022/12/22 09:31:30;;;;;;;40.80;23.50;;;;;;;;;;6185313;23;20753;-84
2022/12/22 09:33:57;;;;;;;40.67;21.33;;;;;;;;;;6180950;23;20445;-84
2022/12/22 09:36:24;;;;;;;35.97;18.77;;;;;;;;;;6162889;23;20448;-84
2022/12/22 09:38:53;;;;;;;31.90;20.40;;;;;;;;;;6181727;23;20360;-82
2022/12/22 09:41:37;;;;;;;32.17;19.20;;;;;;;;;;6179696;23;20399;-83
2022/12/22 09:44:13;;;;;;;36.97;20.77;;;;;;;;;;6180678;23;20351;-83
2022/12/22 09:46:39;;;;;;;33.27;20.27;;;;;;;;;;6176931;23;20375;-85
2022/12/22 09:49:06;;;;;;;29.27;20.00;;;;;;;;;;6153608;23;20403;-86
2022/12/22 09:51:33;;;;;;;29.00;16.80;;;;;;;;;;6180076;23;20399;-86
2022/12/22 09:54:00;;;;;;;29.73;17.90;;;;;;;;;;6182250;23;20857;-84
2022/12/22 09:56:27;;;;;;;27.97;16.40;;;;;;;;;;6183311;23;20372;-83
2022/12/22 10:02:40;;;;;;;22.77;14.00;;;;;;;;;;6173514;23;20464;-86
2022/12/22 10:05:15;;;;;;;20.43;14.70;;;;;;;;;;6007563;23;20503;-84
2022/12/22 10:07:42;;;;;;;19.70;13.90;;;;;;;;;;6030242;23;20367;-82
2022/12/22 10:10:28;;;;;;;22.63;13.60;;;;;;;;;;6088188;23;20856;-82
2022/12/22 10:12:55;;;;;;;20.17;14.00;;;;;;;;;;6177085;23;20386;-82
2022/12/22 10:15:23;;;;;;;22.57;13.93;;;;;;;;;;6145665;23;20401;-83
2022/12/22 10:17:53;;;;;;;27.20;15.83;;;;;;;;;;6151053;23;20383;-82
2022/12/22 10:20:24;;;;;;;19.80;13.57;;;;;;;;;;6175578;23;20421;-82
2022/12/22 10:23:22;;;;;;;27.85;14.95;;;;;;;;;;6180566;23;20399;-82
2022/12/22 10:25:54;;;;;;;28.50;17.95;;;;;;;;;;6098341;23;20375;-83
2022/12/22 10:28:22;;;;;;;19.77;12.10;;;;;;;;;;6183457;23;20623;-83
2022/12/22 10:30:49;;;;;;;22.10;15.10;;;;;;;;;;6177683;23;20462;-82
2022/12/22 10:33:16;;;;;;;23.60;14.30;;;;;;;;;;6154131;23;20515;-82
2022/12/22 10:35:44;;;;;;;23.70;13.30;;;;;;;;;;6178242;23;20382;-82
2022/12/22 10:38:29;;;;;;;21.40;12.60;;;;;;;;;;6178905;23;20475;-80
2022/12/22 10:40:59;;;;;;;24.47;14.37;;;;;;;;;;6174917;23;20493;-84
2022/12/22 10:43:33;;;;;;;25.50;15.47;;;;;;;;;;6177261;23;20791;-83
2022/12/22 10:46:00;;;;;;;27.73;15.47;;;;;;;;;;6172847;23;20392;-84
2022/12/22 10:48:30;;;;;;;22.67;14.40;;;;;;;;;;6178116;23;20619;-82
2022/12/22 10:50:57;;;;;;;26.70;14.40;;;;;;;;;;6175243;23;20477;-82
2022/12/22 10:53:37;;;;;;;26.30;12.80;;;;;;;;;;6181277;23;20406;-81
2022/12/22 10:56:07;;;;;;;24.80;15.40;;;;;;;;;;6175871;23;20386;-84
2022/12/22 10:59:09;;;;;;;23.83;14.70;;;;;;;;;;6178459;23;20452;-83
2022/12/22 11:01:36;;;;;;;25.80;14.17;;;;;;;;;;6022273;23;20514;-82
2022/12/22 11:04:21;;;;;;;23.50;14.20;;;;;;;;;;6130996;23;20746;-87
2022/12/22 11:06:47;;;;;;;23.03;14.43;;;;;;;;;;6170401;23;20359;-85
2022/12/22 11:09:13;;;;;;;20.00;12.90;;;;;;;;;;6167501;23;20368;-83
2022/12/22 11:11:45;;;;;;;21.17;13.77;;;;;;;;;;6167326;23;20412;-82
2022/12/22 11:14:14;;;;;;;17.97;12.50;;;;;;;;;;6170302;23;20375;-85
2022/12/22 11:16:43;;;;;;;22.70;13.07;;;;;;;;;;6167877;23;20398;-87
2022/12/22 11:19:12;;;;;;;16.37;11.33;;;;;;;;;;6163728;23;20393;-88
2022/12/22 11:21:49;;;;;;;16.10;11.23;;;;;;;;;;6157475;23;20933;-87
2022/12/22 11:24:15;;;;;;;12.63;10.90;;;;;;;;;;6155288;23;20352;-81
2022/12/22 11:26:58;;;;;;;14.27;11.00;;;;;;;;;;6145066;23;20372;-83
2022/12/22 11:29:27;;;;;;;16.40;11.43;;;;;;;;;;6147441;23;20451;-83
2022/12/22 11:31:59;;;;;;;18.33;11.93;;;;;;;;;;6147165;23;20380;-85
2022/12/22 11:34:40;;;;;;;16.93;12.00;;;;;;;;;;6147592;23;20616;-83
2022/12/22 11:37:25;;;;;;;15.50;10.90;;;;;;;;;;6154751;23;20373;-84
2022/12/22 11:40:04;;;;;;;18.70;12.50;;;;;;;;;;6148142;23;20434;-82
2022/12/22 11:42:30;;;;;;;17.50;12.73;;;;;;;;;;6152900;23;20349;-83
2022/12/22 11:45:24;;;;;;;17.67;13.17;;;;;;;;;;6149257;23;20508;-84
2022/12/22 11:48:06;;;;;;;26.67;15.57;;;;;;;;;;6151987;23;20337;-83
2022/12/22 11:50:36;;;;;;;24.17;15.27;;;;;;;;;;6151468;23;20399;-83
2022/12/22 11:53:14;;;;;;;20.47;14.67;;;;;;;;;;6148345;23;20416;-84
2022/12/22 11:55:44;;;;;;;24.03;15.13;;;;;;;;;;6142504;23;20769;-84
2022/12/22 11:58:18;;;;;;;19.53;14.20;;;;;;;;;;6147085;23;20992;-84
2022/12/22 12:00:53;;;;;;;15.13;11.83;;;;;;;;;;6160511;23;20438;-82
2022/12/22 12:03:38;;;;;;;19.80;14.10;;;;;;;;;;6155218;23;20387;-81
2022/12/22 12:06:04;;;;;;;19.93;13.10;;;;;;;;;;6180277;23;20398;-83
2022/12/22 12:08:36;;;;;;;14.63;12.53;;;;;;;;;;6188686;23;20360;-82
2022/12/22 12:11:02;;;;;;;16.13;12.00;;;;;;;;;;6181417;23;20379;-78
2022/12/22 12:14:00;;;;;;;15.47;10.90;;;;;;;;;;6188432;23;20383;-84
2022/12/22 12:16:36;;;;;;;15.73;10.00;;;;;;;;;;6097350;23;20402;-85
2022/12/22 12:19:21;;;;;;;12.60;9.30;;;;;;;;;;6181483;23;20684;-84
2022/12/22 12:21:49;;;;;;;10.53;8.57;;;;;;;;;;6176020;23;20419;-85
2022/12/22 12:24:28;;;;;;;13.80;10.53;;;;;;;;;;6180077;23;20467;-81
2022/12/22 12:26:57;;;;;;;16.10;10.83;;;;;;;;;;6176174;23;20385;-86
2022/12/22 12:29:36;;;;;;;12.00;10.03;;;;;;;;;;6179993;23;20488;-85
2022/12/22 12:32:04;;;;;;;10.47;8.73;;;;;;;;;;6176775;23;20852;-82
2022/12/22 12:34:32;;;;;;;10.87;9.77;;;;;;;;;;6180898;23;20421;-82
2022/12/22 12:37:07;;;;;;;13.97;10.63;;;;;;;;;;6147464;23;20397;-85
2022/12/22 12:39:36;;;;;;;13.03;9.50;;;;;;;;;;6173408;23;20359;-85
2022/12/22 12:42:05;;;;;;;16.03;10.73;;;;;;;;;;6178992;23;20891;-83
2022/12/22 12:44:34;;;;;;;13.60;11.37;;;;;;;;;;6174674;23;20362;-84
2022/12/22 12:47:04;;;;;;;10.00;8.97;;;;;;;;;;6176564;23;20704;-83
2022/12/22 12:49:33;;;;;;;16.63;9.00;;;;;;;;;;6176059;23;20449;-80
2022/12/22 12:52:06;;;;;;;11.20;10.03;;;;;;;;;;6182727;23;20367;-85
2022/12/22 12:54:31;;;;;;;11.40;9.93;;;;;;;;;;6175702;23;20375;-83
2022/12/22 12:57:09;;;;;;;10.73;9.70;;;;;;;;;;6153654;23;21021;-79
2022/12/22 12:59:41;;;;;;;22.60;11.63;;;;;;;;;;6177843;23;20808;-86
2022/12/22 13:02:26;;;;;;;13.87;9.87;;;;;;;;;;6147964;23;20499;-82
2022/12/22 13:05:10;;;;;;;13.50;9.20;;;;;;;;;;6146247;23;20482;-85
2022/12/22 13:07:55;;;;;;;11.30;10.07;;;;;;;;;;6153642;23;20376;-88
2022/12/22 13:10:24;;;;;;;16.77;11.13;;;;;;;;;;6155827;23;20473;-87
2022/12/22 13:12:53;;;;;;;12.40;10.50;;;;;;;;;;6156148;23;20384;-84
2022/12/22 13:15:30;;;;;;;16.70;12.67;;;;;;;;;;6155980;23;20380;-87
2022/12/22 13:17:57;;;;;;;15.70;12.20;;;;;;;;;;6144720;23;20402;-81
2022/12/22 13:20:29;;;;;;;15.40;12.27;;;;;;;;;;6146027;23;20409;-83
2022/12/22 13:22:56;;;;;;;13.37;11.63;;;;;;;;;;6139310;23;20388;-84
2022/12/22 13:25:24;;;;;;;14.13;12.50;;;;;;;;;;6147188;23;20403;-83
2022/12/22 13:27:50;;;;;;;15.33;11.43;;;;;;;;;;6152262;23;20388;-88
2022/12/22 13:30:19;;;;;;;15.20;11.93;;;;;;;;;;6157601;23;20391;-86
2022/12/22 13:32:47;;;;;;;12.50;11.23;;;;;;;;;;6147142;23;20425;-83
2022/12/22 13:35:24;;;;;;;12.60;10.33;;;;;;;;;;6146604;23;20408;-83
2022/12/22 13:37:52;;;;;;;17.07;11.27;;;;;;;;;;6142955;23;20387;-81
2022/12/22 13:40:21;;;;;;;15.70;11.23;;;;;;;;;;6155111;23;20436;-87
2022/12/22 13:43:23;;;;;;;17.87;9.50;;;;;;;;;;6147172;23;20863;-88
2022/12/22 13:45:53;;;;;;;11.73;9.73;;;;;;;;;;6116111;23;20416;-83
2022/12/22 13:48:40;;;;;;;11.17;9.50;;;;;;;;;;6134455;23;20857;-87
2022/12/22 13:51:13;;;;;;;9.47;8.57;;;;;;;;;;6151585;23;20388;-85
2022/12/22 13:53:44;;;;;;;11.13;9.13;;;;;;;;;;6149037;23;20372;-84
2022/12/22 13:56:23;;;;;;;13.60;9.57;;;;;;;;;;6157541;23;20439;-82
2022/12/22 13:58:56;;;;;;;11.00;8.67;;;;;;;;;;6159427;23;20429;-90
2022/12/22 14:01:24;;;;;;;9.50;8.70;;;;;;;;;;6171272;23;20431;-86
2022/12/22 14:03:52;;;;;;;9.83;8.90;;;;;;;;;;6187315;23;20908;-85
2022/12/22 14:06:19;;;;;;;12.10;8.90;;;;;;;;;;6186588;23;20902;-86
2022/12/22 14:08:45;;;;;;;10.27;8.07;;;;;;;;;;6185752;23;20355;-87
2022/12/22 14:11:11;;;;;;;10.23;8.97;;;;;;;;;;6180353;23;20379;-83
2022/12/22 14:13:38;;;;;;;8.80;7.90;;;;;;;;;;6175968;23;20383;-83
2022/12/22 14:16:04;;;;;;;11.03;7.60;;;;;;;;;;6180014;23;20683;-83
2022/12/22 14:18:32;;;;;;;9.83;8.57;;;;;;;;;;6180219;23;20383;-82
2022/12/22 14:20:59;;;;;;;12.40;8.00;;;;;;;;;;6183144;23;20771;-85
2022/12/22 14:23:25;;;;;;;8.83;8.00;;;;;;;;;;6150787;23;20421;-85
2022/12/22 14:25:52;;;;;;;7.80;7.10;;;;;;;;;;6181339;23;20529;-86
2022/12/22 14:28:23;;;;;;;7.40;6.70;;;;;;;;;;6177801;23;20391;-83
2022/12/22 14:30:53;;;;;;;10.10;7.73;;;;;;;;;;6179992;23;20356;-84
2022/12/22 14:33:26;;;;;;;8.37;7.50;;;;;;;;;;6176649;23;20476;-85
2022/12/22 14:36:03;;;;;;;10.13;8.20;;;;;;;;;;6179424;23;20418;-84
2022/12/22 14:38:37;;;;;;;8.87;7.97;;;;;;;;;;6176692;23;20410;-85
2022/12/22 14:41:09;;;;;;;12.20;9.03;;;;;;;;;;6154937;23;20411;-85
2022/12/22 14:43:35;;;;;;;12.10;8.97;;;;;;;;;;6193483;23;20435;-85
2022/12/22 14:46:05;;;;;;;10.27;9.13;;;;;;;;;;6188552;23;20706;-84
2022/12/22 14:48:44;;;;;;;9.50;8.20;;;;;;;;;;6178905;23;20398;-85
2022/12/22 14:51:10;;;;;;;12.03;8.70;;;;;;;;;;6182274;23;20343;-84
2022/12/22 14:53:44;;;;;;;16.13;8.90;;;;;;;;;;6179918;23;20718;-85
2022/12/22 14:56:16;;;;;;;10.03;8.93;;;;;;;;;;6180759;23;20360;-85
2022/12/22 14:58:43;;;;;;;11.43;8.20;;;;;;;;;;6186395;23;21178;-86
2022/12/22 15:01:15;;;;;;;10.60;8.90;;;;;;;;;;6150601;23;20953;-85
2022/12/22 15:03:41;;;;;;;10.23;8.93;;;;;;;;;;6146307;23;20388;-84
2022/12/22 15:06:24;;;;;;;12.27;9.83;;;;;;;;;;6157952;23;20372;-85
2022/12/22 15:08:56;;;;;;;11.60;10.40;;;;;;;;;;6155249;23;20352;-86
2022/12/22 15:11:23;;;;;;;11.60;9.87;;;;;;;;;;6157059;23;20376;-84
2022/12/22 15:13:49;;;;;;;13.17;11.73;;;;;;;;;;6156075;23;20376;-85
2022/12/22 15:16:18;;;;;;;14.27;10.40;;;;;;;;;;6158384;23;20404;-84
2022/12/22 15:18:44;;;;;;;13.30;10.80;;;;;;;;;;6153903;23;20439;-86
2022/12/22 15:21:12;;;;;;;16.70;11.80;;;;;;;;;;6157235;23;20420;-86
2022/12/22 15:23:38;;;;;;;13.97;9.93;;;;;;;;;;6153223;23;20400;-85
2022/12/22 15:26:13;;;;;;;14.30;11.80;;;;;;;;;;6151314;23;20575;-83
2022/12/22 15:28:40;;;;;;;17.70;11.07;;;;;;;;;;6144485;23;20396;-84
2022/12/22 15:31:24;;;;;;;16.10;11.20;;;;;;;;;;6149994;23;20460;-85
2022/12/22 15:33:50;;;;;;;14.57;10.80;;;;;;;;;;6148907;23;20415;-85
2022/12/22 15:36:16;;;;;;;17.77;12.27;;;;;;;;;;6154995;23;20388;-86
2022/12/22 15:38:42;;;;;;;12.03;8.30;;;;;;;;;;6151129;23;20547;-86
2022/12/22 15:41:08;;;;;;;17.93;10.37;;;;;;;;;;6150279;23;20558;-84
2022/12/22 15:43:34;;;;;;;14.90;8.37;;;;;;;;;;6145862;23;20452;-84
2022/12/22 15:46:00;;;;;;;10.97;9.73;;;;;;;;;;6148127;23;20459;-82
2022/12/22 15:48:28;;;;;;;14.83;9.80;;;;;;;;;;6143780;23;20717;-82
2022/12/22 15:51:24;;;;;;;12.53;8.77;;;;;;;;;;6149226;23;20859;-88
2022/12/22 15:53:54;;;;;;;13.40;10.50;;;;;;;;;;6130320;23;20484;-87
2022/12/22 15:56:22;;;;;;;13.93;9.70;;;;;;;;;;6134978;23;20436;-86
2022/12/22 15:58:56;;;;;;;9.63;8.63;;;;;;;;;;6130515;23;20543;-89
2022/12/22 16:01:22;;;;;;;9.80;7.90;;;;;;;;;;6128804;23;20439;-86
2022/12/22 16:03:51;;;;;;;13.90;10.20;;;;;;;;;;6128540;23;20482;-89
2022/12/22 16:06:23;;;;;;;20.90;9.40;;;;;;;;;;6136343;23;20412;-88
2022/12/22 16:08:50;;;;;;;11.43;7.90;;;;;;;;;;6140123;23;20383;-88
2022/12/22 16:11:17;;;;;;;10.33;8.93;;;;;;;;;;6129623;23;20400;-87
2022/12/22 16:13:43;;;;;;;8.57;7.80;;;;;;;;;;6123949;23;20392;-86
2022/12/22 16:16:10;;;;;;;10.87;9.03;;;;;;;;;;6129173;23;20442;-88
2022/12/22 16:18:39;;;;;;;10.00;9.00;;;;;;;;;;6130110;23;20395;-85
2022/12/22 16:21:07;;;;;;;10.30;9.10;;;;;;;;;;6123551;23;20423;-88
2022/12/22 16:23:34;;;;;;;10.17;8.60;;;;;;;;;;6122740;23;20493;-86
2022/12/22 16:26:12;;;;;;;11.97;10.30;;;;;;;;;;6139446;23;20376;-88
2022/12/22 16:29:11;;;;;;;14.00;8.83;;;;;;;;;;6142423;23;20740;-89
2022/12/22 16:31:48;;;;;;;12.43;9.77;;;;;;;;;;6139069;23;20384;-88
2022/12/22 16:34:16;;;;;;;14.30;10.20;;;;;;;;;;6163299;23;20459;-85
2022/12/22 16:36:42;;;;;;;10.27;9.07;;;;;;;;;;6129288;23;20392;-89
2022/12/22 16:39:32;;;;;;;14.13;9.97;;;;;;;;;;6153372;23;20869;-89
2022/12/22 16:42:25;;;;;;;14.90;12.10;;;;;;;;;;6122910;23;20764;-90
2022/12/22 16:44:51;;;;;;;14.13;10.80;;;;;;;;;;6149544;23;20404;-89
2022/12/22 16:47:28;;;;;;;12.93;11.10;;;;;;;;;;6132732;23;20393;-88
2022/12/22 16:50:03;;;;;;;11.93;9.07;;;;;;;;;;6134947;23;20380;-88
2022/12/22 16:52:58;;;;;;;13.00;9.60;;;;;;;;;;6158231;23;20419;-87
2022/12/22 16:55:36;;;;;;;8.60;7.70;;;;;;;;;;6139182;23;20392;-88
2022/12/22 16:58:11;;;;;;;10.13;8.03;;;;;;;;;;6135894;23;20934;-88
2022/12/22 17:00:37;;;;;;;7.00;6.37;;;;;;;;;;6153006;23;20968;-89
2022/12/22 17:03:19;;;;;;;8.97;8.17;;;;;;;;;;6125636;23;21040;-90
2022/12/22 17:05:52;;;;;;;8.80;7.13;;;;;;;;;;6125980;23;20384;-89
2022/12/22 17:08:21;;;;;;;8.30;7.50;;;;;;;;;;6123201;23;20389;-89
2022/12/22 17:10:47;;;;;;;7.93;7.13;;;;;;;;;;6126251;23;20388;-89
2022/12/22 17:13:13;;;;;;;7.10;6.40;;;;;;;;;;6123457;23;20519;-89
2022/12/22 17:15:42;;;;;;;8.50;7.70;;;;;;;;;;6167025;23;20624;-87
2022/12/22 17:18:21;;;;;;;8.20;7.40;;;;;;;;;;6133695;23;20419;-88
2022/12/22 17:20:48;;;;;;;8.47;7.67;;;;;;;;;;6130044;23;20947;-91
2022/12/22 17:23:26;;;;;;;12.10;8.73;;;;;;;;;;6123119;23;20431;-89
2022/12/22 17:25:55;;;;;;;9.20;8.30;;;;;;;;;;6124759;23;20878;-88
2022/12/22 17:28:21;;;;;;;10.60;8.20;;;;;;;;;;6122607;23;20384;-89
2022/12/22 17:30:49;;;;;;;13.13;9.00;;;;;;;;;;6124676;23;20470;-88
2022/12/22 17:33:16;;;;;;;6.40;5.83;;;;;;;;;;6123196;23;20819;-87
2022/12/22 17:35:42;;;;;;;8.57;7.67;;;;;;;;;;6128503;23;20400;-87
2022/12/22 17:38:15;;;;;;;10.33;9.20;;;;;;;;;;6150190;23;20388;-88
2022/12/22 17:40:45;;;;;;;10.27;8.60;;;;;;;;;;6153577;23;20499;-87
2022/12/22 17:43:15;;;;;;;6.97;6.20;;;;;;;;;;6124192;23;20712;-88
2022/12/22 17:45:44;;;;;;;9.13;7.60;;;;;;;;;;6128026;23;20380;-88
2022/12/22 17:48:13;;;;;;;6.70;6.10;;;;;;;;;;6124140;23;20490;-88
2022/12/22 17:50:40;;;;;;;8.13;7.43;;;;;;;;;;6149649;23;20376;-87
2022/12/22 17:56:32;;;;;;;6.67;5.97;;;;;;;;;;6171696;23;20335;-90
2022/12/22 17:58:58;;;;;;;9.53;8.60;;;;;;;;;;6121602;23;20793;-82
2022/12/22 18:01:28;;;;;;;8.50;6.67;;;;;;;;;;6118056;23;20436;-85
2022/12/22 18:03:55;;;;;;;7.57;6.80;;;;;;;;;;6091295;23;20400;-82
2022/12/22 18:06:23;;;;;;;6.93;6.33;;;;;;;;;;6119247;23;20467;-82
2022/12/22 18:08:49;;;;;;;7.87;7.07;;;;;;;;;;6121096;23;20809;-82
2022/12/22 18:11:16;;;;;;;7.40;6.80;;;;;;;;;;6116171;23;20392;-81
2022/12/22 18:13:42;;;;;;;6.20;5.70;;;;;;;;;;6127671;23;20385;-81
2022/12/22 18:16:12;;;;;;;4.53;4.23;;;;;;;;;;6132021;23;20445;-81
2022/12/22 18:18:38;;;;;;;6.53;5.93;;;;;;;;;;6094594;23;20439;-80
2022/12/22 18:21:04;;;;;;;6.87;6.40;;;;;;;;;;6116223;23;20452;-80
2022/12/22 18:23:32;;;;;;;7.97;6.80;;;;;;;;;;6111838;23;20793;-81
2022/12/22 18:25:58;;;;;;;6.93;6.43;;;;;;;;;;6116024;23;20413;-81
2022/12/22 18:28:24;;;;;;;5.10;4.80;;;;;;;;;;6114243;23;20376;-80
2022/12/22 18:30:52;;;;;;;8.93;7.63;;;;;;;;;;6116077;23;20436;-80
2022/12/22 18:33:20;;;;;;;9.40;7.13;;;;;;;;;;6111075;23;20383;-81